Time;durP1;ratioP1;P1;durP2;ratioP2;P2;SDS_P1;SDS_P2;PMS_P1;PMS_P2;Temp;Humidity;BMP_temperature;BMP_pressure;BME280_temperature;BME280_humidity;BME280_pressure;Samples;Min_cycle;Max_cycle;Signal;HPM_P1;HPM_P2
2021/06/08 00:01:57;;;;;;;11.15;6.85;;;;;;;10.99;63.78;97476.44;1768035;79;25717;-86
2021/06/08 00:04:24;;;;;;;9.05;6.28;;;;;;;10.94;63.91;97473.53;1762235;79;26265;-86
2021/06/08 00:06:51;;;;;;;8.55;6.10;;;;;;;10.89;63.91;97478.20;1774017;79;25761;-86
2021/06/08 00:09:18;;;;;;;11.50;5.97;;;;;;;10.82;64.00;97480.10;1759405;79;27526;-86
2021/06/08 00:11:45;;;;;;;6.37;5.53;;;;;;;10.76;64.12;97479.05;1776677;79;25730;-87
2021/06/08 00:14:11;;;;;;;6.60;5.95;;;;;;;10.74;64.16;97477.63;1776063;79;25984;-86
2021/06/08 00:16:38;;;;;;;7.72;5.50;;;;;;;10.73;64.27;97484.07;1796851;78;25668;-86
2021/06/08 00:19:04;;;;;;;6.97;6.00;;;;;;;10.68;64.39;97481.16;1778931;79;25670;-86
2021/06/08 00:21:31;;;;;;;7.75;5.72;;;;;;;10.67;64.47;97480.84;1760693;79;27577;-86
2021/06/08 00:23:58;;;;;;;7.58;5.42;;;;;;;10.64;64.55;97474.51;1798574;78;25809;-88
2021/06/08 00:26:24;;;;;;;8.13;6.33;;;;;;;10.60;64.65;97478.17;1793032;79;25280;-87
2021/06/08 00:28:51;;;;;;;8.13;6.00;;;;;;;10.60;64.70;97478.69;1777380;79;25895;-86
2021/06/08 00:31:18;;;;;;;7.65;5.53;;;;;;;10.54;64.72;97472.77;1772811;80;25681;-86
2021/06/08 00:33:44;;;;;;;11.68;6.87;;;;;;;10.53;64.84;97476.50;1766665;80;28362;-86
2021/06/08 00:36:11;;;;;;;9.80;6.90;;;;;;;10.48;64.95;97477.66;1749999;79;25761;-85
2021/06/08 00:38:37;;;;;;;8.83;6.00;;;;;;;10.42;65.04;97473.91;1778242;79;25714;-85
2021/06/08 00:41:04;;;;;;;8.13;6.20;;;;;;;10.40;65.14;97473.28;1745197;79;25895;-86
2021/06/08 00:43:31;;;;;;;8.35;6.42;;;;;;;10.37;65.24;97471.03;1766553;80;25718;-85
2021/06/08 00:45:57;;;;;;;9.65;6.08;;;;;;;10.34;65.30;97466.88;1766340;80;28223;-86
2021/06/08 00:48:24;;;;;;;9.80;6.58;;;;;;;10.32;65.38;97463.55;1754048;79;25761;-84
2021/06/08 00:50:51;;;;;;;8.60;6.65;;;;;;;10.29;65.40;97471.22;1779210;79;25782;-86
2021/06/08 00:53:18;;;;;;;8.55;6.22;;;;;;;10.29;65.49;97466.66;1779972;79;26643;-86
2021/06/08 00:55:44;;;;;;;8.55;5.92;;;;;;;10.27;65.54;97460.63;1752909;79;25786;-86
2021/06/08 00:58:11;;;;;;;10.05;6.80;;;;;;;10.22;65.67;97459.09;1758939;80;27527;-86
2021/06/08 01:00:37;;;;;;;7.30;6.33;;;;;;;10.21;65.74;97460.12;1766075;80;25743;-86
2021/06/08 01:03:04;;;;;;;7.35;6.40;;;;;;;10.21;65.80;97459.30;1746479;79;25800;-85
2021/06/08 01:05:31;;;;;;;9.88;6.33;;;;;;;10.15;65.74;97460.91;1735734;79;25730;-85
2021/06/08 01:07:58;;;;;;;6.60;5.83;;;;;;;10.10;65.80;97463.42;1736356;79;26599;-85
2021/06/08 01:10:24;;;;;;;10.85;6.10;;;;;;;10.06;65.77;97463.51;1738430;80;27351;-86
2021/06/08 01:12:51;;;;;;;8.78;6.70;;;;;;;10.04;65.84;97461.53;1761938;79;26643;-85
2021/06/08 01:15:18;;;;;;;9.50;5.72;;;;;;;10.04;65.92;97461.02;1766782;80;25703;-84
2021/06/08 01:17:44;;;;;;;8.70;5.92;;;;;;;10.00;65.97;97467.05;1765675;79;26410;-84
2021/06/08 01:20:13;;;;;;;6.70;5.72;;;;;;;9.96;66.02;97459.05;1746463;80;25763;-84
2021/06/08 01:22:40;;;;;;;6.75;5.90;;;;;;;9.96;66.08;97457.70;1766763;81;27402;-85
2021/06/08 01:25:07;;;;;;;8.55;5.75;;;;;;;9.94;66.12;97458.41;1766627;80;25735;-85
2021/06/08 01:27:34;;;;;;;9.23;6.53;;;;;;;9.89;66.16;97461.75;1757854;80;25848;-85
2021/06/08 01:30:03;;;;;;;8.63;6.08;;;;;;;9.84;66.30;97456.64;1733593;79;26325;-84
2021/06/08 01:32:32;;;;;;;8.75;6.03;;;;;;;9.83;66.27;97461.20;1787079;79;25716;-84
2021/06/08 01:34:59;;;;;;;8.25;6.42;;;;;;;9.82;66.34;97457.36;1782252;79;26866;-84
2021/06/08 01:37:26;;;;;;;7.25;5.92;;;;;;;9.80;66.37;97462.13;1745119;79;25669;-84
2021/06/08 01:39:53;;;;;;;7.97;6.47;;;;;;;9.79;66.43;97457.77;1751156;81;25708;-84
2021/06/08 01:42:21;;;;;;;8.13;6.12;;;;;;;9.74;66.48;97460.58;1741012;80;25738;-84
2021/06/08 01:44:47;;;;;;;11.33;6.03;;;;;;;9.69;66.54;97454.95;1770531;79;25745;-84
2021/06/08 01:47:14;;;;;;;9.63;6.47;;;;;;;9.68;66.65;97457.86;1778198;79;27519;-84
2021/06/08 01:49:42;;;;;;;7.37;6.00;;;;;;;9.66;66.66;97462.09;1772322;79;25745;-84
2021/06/08 01:52:30;;;;;;;8.50;6.00;;;;;;;9.63;66.69;97460.34;1765445;79;25705;-84
2021/06/08 01:55:22;;;;;;;7.50;5.37;;;;;;;9.59;66.78;97462.61;1743300;79;25774;-84
2021/06/08 01:58:06;;;;;;;7.67;5.93;;;;;;;9.57;66.82;97461.98;1773758;79;26472;-84
2021/06/08 02:00:53;;;;;;;8.93;5.87;;;;;;;9.52;66.94;97464.47;1757155;79;27383;-84
2021/06/08 02:03:38;;;;;;;7.72;6.30;;;;;;;9.49;67.04;97463.52;1775692;79;25819;-84
2021/06/08 02:06:22;;;;;;;7.65;5.80;;;;;;;9.48;67.14;97461.03;1777175;79;25785;-84
2021/06/08 02:09:18;;;;;;;6.08;5.47;;;;;;;9.46;67.21;97455.84;1764698;80;25828;-84
2021/06/08 02:11:59;;;;;;;6.85;5.28;;;;;;;9.44;67.21;97456.55;1767535;79;25777;-84
2021/06/08 02:14:43;;;;;;;14.30;6.37;;;;;;;9.40;67.37;97463.40;1751470;80;27372;-84
2021/06/08 02:17:30;;;;;;;8.05;6.45;;;;;;;9.33;67.35;97463.87;1749941;79;25782;-84
2021/06/08 02:20:02;;;;;;;7.90;5.72;;;;;;;9.32;67.44;97470.30;1765398;79;25997;-83
2021/06/08 02:22:29;;;;;;;8.40;6.42;;;;;;;9.30;67.54;97468.31;1756864;79;25729;-84
2021/06/08 02:24:57;;;;;;;6.90;5.75;;;;;;;9.30;67.52;97466.97;1764235;79;25271;-84
2021/06/08 02:27:27;;;;;;;8.80;6.47;;;;;;;9.30;67.50;97473.19;1777996;79;27076;-84
2021/06/08 02:29:54;;;;;;;7.47;6.47;;;;;;;9.29;67.51;97478.80;1782703;79;25797;-84
2021/06/08 02:32:22;;;;;;;8.38;6.17;;;;;;;9.27;67.52;97480.86;1787059;79;26545;-84
2021/06/08 02:34:50;;;;;;;7.78;6.03;;;;;;;9.23;67.68;97472.86;1766576;80;25716;-84
2021/06/08 02:37:19;;;;;;;7.12;6.10;;;;;;;9.23;67.73;97476.89;1754622;80;25944;-84
2021/06/08 02:39:47;;;;;;;8.83;6.35;;;;;;;9.23;67.78;97477.73;1779698;79;27356;-84
2021/06/08 02:42:18;;;;;;;8.18;6.42;;;;;;;9.22;67.79;97480.62;1750457;79;25709;-84
2021/06/08 02:44:47;;;;;;;9.68;6.65;;;;;;;9.20;67.74;97482.67;1748192;80;25718;-83
2021/06/08 02:47:17;;;;;;;8.55;6.42;;;;;;;9.17;67.78;97483.93;1766715;80;25933;-83
2021/06/08 02:49:47;;;;;;;9.03;6.08;;;;;;;9.16;67.83;97481.44;1755893;79;25773;-84
2021/06/08 02:52:17;;;;;;;9.18;6.22;;;;;;;9.15;67.85;97483.81;1756652;80;27403;-83
2021/06/08 02:54:44;;;;;;;9.33;6.20;;;;;;;9.14;67.85;97484.33;1766491;80;25918;-83
2021/06/08 02:57:12;;;;;;;8.28;6.10;;;;;;;9.12;67.90;97484.20;1766539;80;26413;-83
2021/06/08 02:59:41;;;;;;;7.83;6.35;;;;;;;9.11;67.95;97487.92;1793958;79;27195;-84
2021/06/08 03:02:11;;;;;;;7.25;5.90;;;;;;;9.08;67.92;97493.70;1779747;79;25529;-84
2021/06/08 03:04:49;;;;;;;8.33;6.17;;;;;;;9.07;68.07;97493.38;1766419;79;27442;-84
2021/06/08 03:07:17;;;;;;;15.95;6.33;;;;;;;9.05;68.16;97498.16;1748311;79;26743;-83
2021/06/08 03:10:06;;;;;;;7.70;6.12;;;;;;;9.04;68.24;97497.33;1766563;80;25322;-84
2021/06/08 03:12:54;;;;;;;8.35;6.83;;;;;;;9.00;68.29;97495.55;1767529;80;26560;-84
2021/06/08 03:15:28;;;;;;;10.72;7.10;;;;;;;9.01;68.41;97501.76;1766623;80;25268;-84
2021/06/08 03:17:56;;;;;;;11.75;6.72;;;;;;;9.00;68.42;97504.97;1766249;79;27477;-84
2021/06/08 03:20:48;;;;;;;7.78;6.65;;;;;;;9.01;68.50;97510.67;1772086;79;25757;-84
2021/06/08 03:23:19;;;;;;;7.85;6.10;;;;;;;9.02;68.52;97510.98;1777093;79;25718;-83
2021/06/08 03:25:48;;;;;;;8.38;5.95;;;;;;;9.00;68.60;97513.05;1745036;79;25752;-84
2021/06/08 03:28:22;;;;;;;9.05;6.70;;;;;;;8.98;68.72;97513.75;1736291;79;25815;-84
2021/06/08 03:30:50;;;;;;;10.95;6.50;;;;;;;9.00;68.74;97517.08;1769594;79;27447;-83
2021/06/08 03:33:20;;;;;;;10.43;7.12;;;;;;;9.01;68.79;97516.56;1798000;79;25791;-85
2021/06/08 03:35:48;;;;;;;10.60;6.87;;;;;;;9.00;68.92;97519.78;1734667;82;26405;-84
2021/06/08 03:38:17;;;;;;;9.38;6.60;;;;;;;9.01;68.98;97517.41;1757254;79;26309;-84
2021/06/08 03:40:46;;;;;;;13.65;7.33;;;;;;;9.03;69.15;97523.42;1751496;80;25712;-84
2021/06/08 03:43:14;;;;;;;12.70;7.53;;;;;;;9.08;69.27;97519.28;1740637;80;27493;-85
2021/06/08 03:45:45;;;;;;;11.33;7.22;;;;;;;9.11;69.29;97520.23;1723337;79;26436;-84
2021/06/08 03:48:14;;;;;;;11.48;7.65;;;;;;;9.13;69.26;97524.91;1776784;79;25858;-84
2021/06/08 03:50:41;;;;;;;18.25;7.30;;;;;;;9.16;69.29;97525.88;1726070;79;25769;-83
2021/06/08 03:53:08;;;;;;;8.58;6.87;;;;;;;9.18;69.35;97522.44;1769203;79;25677;-84
2021/06/08 03:55:35;;;;;;;11.00;6.50;;;;;;;9.19;69.35;97522.75;1714074;80;27623;-83
2021/06/08 03:58:12;;;;;;;7.60;6.22;;;;;;;9.21;69.40;97520.19;1746112;80;25747;-83
2021/06/08 04:00:31;;;;;;;8.98;7.03;;;;;;;9.22;69.52;97519.16;1737399;80;25809;-84
2021/06/08 04:02:58;;;;;;;14.78;8.13;;;;;;;9.24;69.63;97521.66;1795356;79;25731;-84
2021/06/08 04:05:24;;;;;;;11.90;8.00;;;;;;;9.22;69.71;97523.20;1756442;78;25289;-83
2021/06/08 04:07:51;;;;;;;9.83;6.70;;;;;;;9.27;69.81;97530.69;1721454;80;28226;-82
2021/06/08 04:10:21;;;;;;;9.40;6.80;;;;;;;9.32;69.78;97524.17;1754873;80;26058;-83
2021/06/08 04:12:49;;;;;;;12.58;6.95;;;;;;;9.36;69.81;97525.44;1751930;80;25690;-83
2021/06/08 04:15:18;;;;;;;12.98;7.58;;;;;;;9.37;69.84;97516.33;1753507;79;25899;-83
2021/06/08 04:17:45;;;;;;;12.15;8.28;;;;;;;9.38;70.00;97513.95;1754963;80;25776;-84
2021/06/08 04:20:12;;;;;;;11.75;8.28;;;;;;;9.43;70.09;97520.89;1772072;79;27588;-83
2021/06/08 04:22:40;;;;;;;15.93;8.33;;;;;;;9.49;70.13;97524.66;1778426;79;25777;-83
2021/06/08 04:25:08;;;;;;;10.75;7.87;;;;;;;9.56;70.22;97522.81;1750426;80;25777;-83
2021/06/08 04:27:35;;;;;;;17.65;8.70;;;;;;;9.62;70.20;97519.33;1729361;80;25825;-83
2021/06/08 04:30:07;;;;;;;14.03;8.85;;;;;;;9.70;70.17;97518.61;1776469;79;25716;-83
2021/06/08 04:32:35;;;;;;;17.65;8.85;;;;;;;9.80;70.21;97526.83;1730420;80;28362;-83
2021/06/08 04:35:06;;;;;;;16.62;8.80;;;;;;;9.86;70.13;97518.77;1752381;80;25784;-83
2021/06/08 04:37:34;;;;;;;21.73;10.13;;;;;;;9.94;70.11;97515.87;1747284;80;25765;-83
2021/06/08 04:40:00;;;;;;;18.55;9.90;;;;;;;10.02;70.23;97521.61;1771530;80;26470;-84
2021/06/08 04:42:27;;;;;;;17.75;9.38;;;;;;;10.08;70.17;97520.77;1766727;80;26462;-84
2021/06/08 04:44:54;;;;;;;18.50;9.13;;;;;;;10.13;70.19;97513.42;1749307;80;27456;-84
2021/06/08 04:47:22;;;;;;;20.62;9.15;;;;;;;10.18;70.25;97511.79;1742450;80;25938;-84
2021/06/08 04:49:50;;;;;;;14.73;8.88;;;;;;;10.24;70.39;97517.72;1758744;80;26330;-84
2021/06/08 04:52:17;;;;;;;17.07;8.80;;;;;;;10.30;70.42;97518.75;1749978;80;25737;-83
2021/06/08 04:54:44;;;;;;;14.60;9.15;;;;;;;10.37;70.30;97517.73;1738140;80;25794;-84
2021/06/08 04:57:14;;;;;;;14.15;8.88;;;;;;;10.46;70.44;97517.83;1772540;79;27612;-83
2021/06/08 04:59:55;;;;;;;14.78;8.63;;;;;;;10.53;70.42;97508.89;1772746;79;25798;-83
2021/06/08 05:02:57;;;;;;;13.85;8.90;;;;;;;10.61;70.37;97514.09;1771297;80;25725;-83
2021/06/08 05:05:30;;;;;;;13.53;8.90;;;;;;;10.69;70.29;97509.81;1771192;80;25766;-83
2021/06/08 05:08:05;;;;;;;16.55;8.48;;;;;;;10.79;70.32;97512.40;1754056;79;25790;-83
2021/06/08 05:10:40;;;;;;;18.32;8.90;;;;;;;10.87;70.24;97513.23;1768072;79;27948;-84
2021/06/08 05:13:11;;;;;;;16.55;8.98;;;;;;;10.97;70.32;97510.41;1774738;79;25653;-83
2021/06/08 05:15:41;;;;;;;11.10;8.30;;;;;;;11.07;70.42;97522.95;1784708;79;25643;-84
2021/06/08 05:18:10;;;;;;;15.10;7.78;;;;;;;11.16;70.39;97513.56;1749979;80;26484;-83
2021/06/08 05:20:40;;;;;;;9.20;7.97;;;;;;;11.25;70.31;97513.32;1752234;79;26591;-83
2021/06/08 05:23:08;;;;;;;13.13;8.20;;;;;;;11.36;70.43;97505.38;1782265;79;27441;-83
2021/06/08 05:25:37;;;;;;;20.15;8.80;;;;;;;11.46;70.38;97509.00;1790124;79;25425;-83
2021/06/08 05:28:05;;;;;;;17.67;8.35;;;;;;;11.57;70.46;97510.20;1770837;80;25695;-83
2021/06/08 05:30:32;;;;;;;27.25;9.68;;;;;;;11.68;70.50;97514.93;1771336;80;25761;-83
2021/06/08 05:32:58;;;;;;;26.68;12.05;;;;;;;11.78;70.65;97510.74;1769598;80;26325;-83
2021/06/08 05:35:30;;;;;;;24.25;10.35;;;;;;;11.88;70.54;97511.09;1746553;79;28502;-83
2021/06/08 05:38:07;;;;;;;20.17;11.20;;;;;;;11.99;70.47;97508.22;1784162;79;25705;-83
2021/06/08 05:40:39;;;;;;;19.77;10.55;;;;;;;12.11;70.32;97511.05;1784616;79;25793;-83
2021/06/08 05:43:06;;;;;;;21.50;9.58;;;;;;;12.22;70.24;97504.94;1749927;80;26477;-84
2021/06/08 05:45:34;;;;;;;19.52;10.03;;;;;;;12.38;70.08;97507.12;1750372;80;25746;-84
2021/06/08 05:48:01;;;;;;;14.38;9.78;;;;;;;12.51;69.89;97505.66;1770554;79;27387;-83
2021/06/08 05:50:29;;;;;;;15.28;9.63;;;;;;;12.63;69.84;97509.83;1741308;79;25763;-83
2021/06/08 05:52:56;;;;;;;12.23;8.53;;;;;;;12.74;69.63;97497.44;1765545;80;25699;-82
2021/06/08 05:55:26;;;;;;;14.73;8.23;;;;;;;12.87;69.31;97494.61;1766225;80;25897;-83
2021/06/08 05:57:53;;;;;;;17.60;9.05;;;;;;;12.99;69.02;97495.00;1744944;79;25843;-83
2021/06/08 06:00:21;;;;;;;17.98;7.58;;;;;;;13.13;68.98;97497.05;1763304;80;27782;-83
2021/06/08 06:02:51;;;;;;;14.53;8.60;;;;;;;13.23;68.86;97496.02;1766315;80;25910;-83
2021/06/08 06:05:17;;;;;;;11.83;7.42;;;;;;;13.35;68.68;97492.03;1754825;80;25709;-83
2021/06/08 06:07:44;;;;;;;14.05;7.70;;;;;;;13.48;68.44;97492.39;1759373;80;25750;-83
2021/06/08 06:10:12;;;;;;;13.65;7.20;;;;;;;13.58;68.23;97497.58;1766662;80;25714;-82
2021/06/08 06:12:42;;;;;;;11.20;7.00;;;;;;;13.75;67.92;97493.72;1787065;79;27550;-82
2021/06/08 06:15:11;;;;;;;12.35;7.65;;;;;;;13.87;67.76;97497.31;1786335;79;25764;-82
2021/06/08 06:17:40;;;;;;;11.05;7.83;;;;;;;14.03;67.76;97491.21;1783162;79;25764;-82
2021/06/08 06:20:11;;;;;;;10.75;7.45;;;;;;;14.20;67.60;97497.34;1784414;79;25734;-82
2021/06/08 06:22:38;;;;;;;13.80;8.10;;;;;;;14.35;67.43;97495.03;1747321;80;25761;-83
2021/06/08 06:25:09;;;;;;;12.37;7.20;;;;;;;14.48;67.06;97485.34;1746456;80;28311;-83
2021/06/08 06:27:39;;;;;;;9.58;7.22;;;;;;;14.61;66.81;97477.51;1766671;80;25746;-83
2021/06/08 06:30:10;;;;;;;8.83;6.72;;;;;;;14.74;66.68;97469.93;1766674;80;25714;-83
2021/06/08 06:32:37;;;;;;;13.25;7.10;;;;;;;14.92;66.56;97473.60;1768200;79;25758;-82
2021/06/08 06:35:07;;;;;;;14.00;7.42;;;;;;;15.07;66.47;97475.31;1794123;78;25815;-82
2021/06/08 06:37:36;;;;;;;8.93;6.85;;;;;;;15.21;66.48;97474.00;1779162;79;27365;-82
2021/06/08 06:40:07;;;;;;;10.00;6.80;;;;;;;15.34;65.99;97464.19;1777703;79;25674;-83
2021/06/08 06:42:44;;;;;;;9.55;6.42;;;;;;;15.46;65.28;97462.27;1797647;78;25695;-82
2021/06/08 06:45:21;;;;;;;10.00;7.33;;;;;;;15.64;65.13;97468.64;1771627;80;26468;-82
2021/06/08 06:47:50;;;;;;;12.47;7.08;;;;;;;15.85;65.09;97467.96;1782678;78;25761;-82
2021/06/08 06:50:17;;;;;;;7.92;7.00;;;;;;;16.02;64.97;97463.40;1788506;79;27435;-82
2021/06/08 06:52:55;;;;;;;9.73;7.25;;;;;;;16.16;64.83;97466.64;1781565;78;25695;-82
2021/06/08 06:55:14;;;;;;;7.30;6.60;;;;;;;16.29;64.44;97468.23;1775979;79;25268;-81
2021/06/08 06:57:43;;;;;;;13.43;6.03;;;;;;;16.39;64.12;97462.41;1771572;79;25743;-82
2021/06/08 07:00:11;;;;;;;11.18;6.10;;;;;;;16.53;63.54;97470.56;1778824;80;25747;-81
2021/06/08 07:02:40;;;;;;;7.55;6.08;;;;;;;16.66;62.73;97468.07;1755295;79;27411;-81
2021/06/08 07:05:11;;;;;;;9.05;5.58;;;;;;;16.79;62.51;97460.06;1777615;79;25805;-82
2021/06/08 07:07:40;;;;;;;8.53;6.53;;;;;;;16.93;62.00;97458.11;1777461;79;25801;-82
2021/06/08 07:10:09;;;;;;;8.08;6.70;;;;;;;17.07;61.55;97460.48;1787967;78;25860;-82
2021/06/08 07:12:42;;;;;;;9.43;7.22;;;;;;;17.22;61.70;97457.97;1722166;82;25703;-82
2021/06/08 07:15:10;;;;;;;10.65;6.92;;;;;;;17.38;61.71;97450.83;1745758;81;27363;-81
2021/06/08 07:17:38;;;;;;;9.25;6.42;;;;;;;17.52;61.27;97453.42;1766521;81;25670;-82
2021/06/08 07:20:09;;;;;;;13.05;7.30;;;;;;;17.66;61.21;97455.27;1767365;79;25754;-82
2021/06/08 07:22:38;;;;;;;12.25;6.35;;;;;;;17.79;61.20;97449.41;1758052;79;25793;-82
2021/06/08 07:25:08;;;;;;;12.50;6.78;;;;;;;17.95;60.53;97447.14;1756157;79;25774;-81
2021/06/08 07:27:35;;;;;;;10.03;5.75;;;;;;;18.07;60.27;97447.81;1776820;79;27463;-81
2021/06/08 07:30:08;;;;;;;9.73;5.30;;;;;;;18.19;59.72;97447.11;1796664;78;25837;-81
2021/06/08 07:32:42;;;;;;;9.38;5.10;;;;;;;18.33;59.20;97450.25;1785429;78;25689;-82
2021/06/08 07:35:17;;;;;;;12.43;6.28;;;;;;;18.48;59.04;97453.63;1775765;79;25845;-81
2021/06/08 07:37:48;;;;;;;9.33;5.17;;;;;;;18.69;58.35;97456.87;1766692;80;25812;-82
2021/06/08 07:40:29;;;;;;;9.53;5.62;;;;;;;18.87;57.79;97450.14;1766760;80;27433;-82
2021/06/08 07:43:04;;;;;;;7.90;5.42;;;;;;;19.06;57.86;97452.20;1744138;80;25743;-81
2021/06/08 07:45:35;;;;;;;12.82;5.25;;;;;;;19.25;57.66;97450.38;1759571;80;25785;-81
2021/06/08 07:48:06;;;;;;;9.95;5.42;;;;;;;19.39;57.02;97445.53;1766549;80;25738;-84
2021/06/08 07:50:37;;;;;;;7.37;5.12;;;;;;;19.56;56.68;97443.98;1766874;80;25723;-80
2021/06/08 07:53:04;;;;;;;10.98;6.62;;;;;;;19.72;56.04;97448.42;1766763;80;28144;-83
2021/06/08 07:55:31;;;;;;;8.13;5.67;;;;;;;19.95;55.62;97446.30;1755513;81;26691;-81
2021/06/08 07:57:58;;;;;;;7.03;5.33;;;;;;;20.28;55.62;97440.35;1743770;79;25767;-84
2021/06/08 08:00:25;;;;;;;7.80;5.47;;;;;;;20.72;55.08;97443.40;1766922;80;25695;-81
2021/06/08 08:02:55;;;;;;;12.80;6.35;;;;;;;21.24;54.63;97438.14;1768132;80;25772;-83
2021/06/08 08:05:24;;;;;;;5.85;4.65;;;;;;;21.80;54.12;97438.73;1766807;80;28186;-81
2021/06/08 08:07:50;;;;;;;5.60;4.40;;;;;;;22.33;52.64;97440.93;1770038;79;25954;-82
2021/06/08 08:10:22;;;;;;;4.50;4.05;;;;;;;22.85;51.82;97438.86;1766646;80;25749;-82
2021/06/08 08:12:49;;;;;;;4.80;3.62;;;;;;;23.33;50.72;97435.62;1766802;79;25716;-81
2021/06/08 08:15:18;;;;;;;5.72;3.83;;;;;;;23.79;49.84;97439.25;1743610;80;25732;-81
2021/06/08 08:17:45;;;;;;;6.12;4.05;;;;;;;23.78;48.74;97435.67;1766777;79;28079;-83
2021/06/08 08:20:12;;;;;;;4.40;3.30;;;;;;;24.00;48.11;97439.23;1782697;79;25790;-83
2021/06/08 08:22:39;;;;;;;4.03;3.72;;;;;;;24.36;47.26;97434.88;1773590;79;26482;-81
2021/06/08 08:25:08;;;;;;;4.53;3.45;;;;;;;24.66;46.72;97435.48;1752724;80;25795;-83
2021/06/08 08:27:34;;;;;;;5.45;3.33;;;;;;;24.91;45.14;97431.48;1766874;80;25706;-82
2021/06/08 08:30:02;;;;;;;5.72;3.55;;;;;;;25.23;45.83;97427.91;1753130;79;27501;-82
2021/06/08 08:32:29;;;;;;;5.33;3.65;;;;;;;25.72;45.17;97428.02;1761881;79;25659;-83
2021/06/08 08:34:56;;;;;;;4.12;3.37;;;;;;;26.08;44.72;97421.75;1760056;79;25743;-82
2021/06/08 08:37:23;;;;;;;3.58;3.27;;;;;;;26.30;43.59;97420.44;1777076;79;26715;-82
2021/06/08 08:39:49;;;;;;;5.72;3.02;;;;;;;26.72;43.08;97421.06;1777469;80;25741;-86
2021/06/08 08:42:20;;;;;;;4.70;3.62;;;;;;;27.16;42.25;97429.38;1777309;79;27348;-83
2021/06/08 08:44:47;;;;;;;4.87;3.20;;;;;;;27.54;41.55;97422.76;1777586;79;25806;-87
2021/06/08 08:47:16;;;;;;;3.40;3.10;;;;;;;27.54;40.22;97423.33;1777317;79;25748;-84
2021/06/08 08:49:43;;;;;;;6.90;3.40;;;;;;;27.06;39.45;97422.70;1777912;79;25838;-84
2021/06/08 08:52:12;;;;;;;4.35;3.85;;;;;;;26.92;39.73;97423.91;1797445;78;25706;-84
2021/06/08 08:54:40;;;;;;;5.78;3.70;;;;;;;26.70;39.49;97421.38;1712550;81;28087;-83
2021/06/08 08:57:07;;;;;;;3.55;3.20;;;;;;;26.47;38.99;97419.73;1783018;78;26461;-86
2021/06/08 08:59:34;;;;;;;3.25;2.95;;;;;;;25.98;39.14;97417.80;1774341;79;25882;-83
2021/06/08 09:02:02;;;;;;;4.83;3.50;;;;;;;26.02;39.37;97413.30;1758878;79;26670;-83
2021/06/08 09:04:30;;;;;;;5.35;3.90;;;;;;;26.23;38.96;97416.41;1775845;79;25798;-83
2021/06/08 09:06:57;;;;;;;4.95;3.95;;;;;;;26.08;38.63;97415.63;1790701;78;27604;-86
2021/06/08 09:09:24;;;;;;;5.12;3.52;;;;;;;25.80;38.61;97416.83;1805716;79;25441;-83
2021/06/08 09:11:51;;;;;;;4.90;3.83;;;;;;;25.63;38.59;97425.73;1777571;79;25711;-83
2021/06/08 09:14:18;;;;;;;4.33;3.45;;;;;;;25.47;38.43;97422.45;1777553;79;26586;-82
2021/06/08 09:16:45;;;;;;;5.05;3.65;;;;;;;25.20;38.80;97421.05;1749440;79;25762;-82
2021/06/08 09:19:13;;;;;;;4.00;3.60;;;;;;;25.01;39.19;97431.33;1759794;79;27250;-82
2021/06/08 09:21:43;;;;;;;6.30;4.00;;;;;;;24.80;39.46;97431.40;1774376;79;25710;-82
2021/06/08 09:24:19;;;;;;;5.90;3.72;;;;;;;24.56;40.17;97424.63;1776630;79;25772;-82
2021/06/08 09:26:57;;;;;;;7.17;4.40;;;;;;;24.37;40.74;97423.28;1777736;79;26395;-83
2021/06/08 09:29:38;;;;;;;5.15;3.60;;;;;;;24.43;41.93;97423.45;1777682;80;25630;-82
2021/06/08 09:32:21;;;;;;;4.47;4.08;;;;;;;25.09;41.91;97414.90;1761702;80;27430;-81
2021/06/08 09:35:01;;;;;;;4.12;3.80;;;;;;;25.87;41.34;97408.91;1766598;80;25731;-82
2021/06/08 09:37:37;;;;;;;5.33;3.62;;;;;;;26.54;40.04;97402.15;1762424;79;25665;-87
2021/06/08 09:40:27;;;;;;;6.03;4.10;;;;;;;27.09;39.14;97403.24;1762461;80;26492;-86
2021/06/08 09:43:06;;;;;;;5.78;3.75;;;;;;;27.54;38.16;97403.35;1731281;79;26536;-82
2021/06/08 09:45:43;;;;;;;4.90;3.75;;;;;;;28.03;37.45;97406.92;1718839;81;27436;-82
2021/06/08 09:48:11;;;;;;;4.53;3.42;;;;;;;28.50;36.60;97405.78;1746856;80;25720;-82
2021/06/08 09:50:45;;;;;;;4.35;3.47;;;;;;;28.47;35.25;97403.66;1738867;81;25667;-85
2021/06/08 09:53:27;;;;;;;6.62;3.30;;;;;;;28.11;34.81;97401.98;1763658;79;25859;-82
2021/06/08 09:56:04;;;;;;;4.35;3.42;;;;;;;27.69;34.92;97406.86;1763214;80;25771;-79
2021/06/08 09:58:34;;;;;;;4.37;3.30;;;;;;;27.21;35.06;97400.13;1731840;79;27322;-80
2021/06/08 10:01:27;;;;;;;6.22;3.77;;;;;;;27.15;35.83;97401.42;1740383;80;26402;-80
2021/06/08 10:04:03;;;;;;;4.15;3.37;;;;;;;27.21;35.52;97404.28;1749404;81;26327;-80
2021/06/08 10:06:41;;;;;;;5.50;3.35;;;;;;;27.20;35.40;97405.98;1763226;80;25739;-81
2021/06/08 10:09:15;;;;;;;9.98;4.00;;;;;;;26.75;34.83;97407.42;1762266;80;25639;-80
2021/06/08 10:11:45;;;;;;;6.20;4.17;;;;;;;26.18;35.39;97405.73;1762529;80;27434;-80
2021/06/08 10:14:19;;;;;;;4.17;3.80;;;;;;;25.98;36.13;97408.94;1762778;80;25761;-79
2021/06/08 10:17:00;;;;;;;8.23;3.75;;;;;;;25.75;36.53;97405.86;1762236;80;26539;-80
2021/06/08 10:19:28;;;;;;;5.45;4.60;;;;;;;25.46;37.22;97403.41;1762624;80;25695;-80
2021/06/08 10:21:55;;;;;;;6.53;4.12;;;;;;;25.51;37.77;97402.47;1762447;79;25742;-80
2021/06/08 10:24:27;;;;;;;7.47;3.58;;;;;;;25.94;37.26;97392.73;1750021;80;27538;-79
2021/06/08 10:26:56;;;;;;;;;;;;;;;26.44;36.50;97392.72;1755724;80;25715;-81
2021/06/08 10:29:30;;;;;;;3.58;3.27;;;;;;;26.86;34.44;97386.64;1749727;80;25720;-80
2021/06/08 10:31:58;;;;;;;5.05;3.83;;;;;;;27.28;34.77;97387.22;1754710;80;25739;-80
2021/06/08 10:34:27;;;;;;;9.10;3.90;;;;;;;27.64;34.06;97388.44;1751908;80;25785;-79
2021/06/08 10:36:53;;;;;;;5.10;3.60;;;;;;;27.50;34.12;97384.36;1754768;81;27768;-81
2021/06/08 10:39:25;;;;;;;3.47;3.27;;;;;;;27.37;33.88;97388.06;1766661;80;25742;-80
2021/06/08 10:41:48;;;;;;;3.70;3.40;;;;;;;27.22;33.33;97377.39;1765749;80;25716;-80
2021/06/08 10:44:22;;;;;;;4.72;3.42;;;;;;;27.16;33.30;97373.97;1744704;79;26206;-79
2021/06/08 10:47:01;;;;;;;7.53;3.75;;;;;;;27.36;33.30;97377.29;1753218;81;25718;-82
2021/06/08 10:49:40;;;;;;;4.80;3.80;;;;;;;27.62;34.03;97380.18;1766696;80;27432;-82
2021/06/08 10:52:10;;;;;;;5.55;3.55;;;;;;;27.99;33.20;97377.41;1766671;80;25635;-83
2021/06/08 10:54:41;;;;;;;4.70;3.33;;;;;;;28.34;32.72;97379.66;1758988;79;25715;-79
2021/06/08 10:57:13;;;;;;;3.47;3.12;;;;;;;28.62;32.37;97378.14;1762376;79;25733;-79
2021/06/08 10:59:40;;;;;;;4.72;3.65;;;;;;;28.79;32.83;97380.12;1752655;79;25680;-79
2021/06/08 11:02:08;;;;;;;3.75;3.22;;;;;;;28.89;32.66;97376.41;1765033;80;27583;-77
2021/06/08 11:04:51;;;;;;;3.95;3.47;;;;;;;28.87;32.52;97371.75;1766625;80;26433;-78
2021/06/08 11:07:47;;;;;;;3.27;2.98;;;;;;;29.18;32.05;97370.70;1757866;79;25676;-78
2021/06/08 11:10:43;;;;;;;4.17;3.33;;;;;;;29.25;31.65;97373.77;1766364;80;25739;-80
2021/06/08 11:13:17;;;;;;;7.55;3.75;;;;;;;28.70;31.16;97371.77;1766629;81;25790;-79
2021/06/08 11:15:47;;;;;;;4.05;3.20;;;;;;;28.50;31.36;97376.63;1766821;79;27426;-81
2021/06/08 11:18:37;;;;;;;3.85;3.45;;;;;;;28.27;31.12;97374.00;1766633;79;25670;-80
2021/06/08 11:21:09;;;;;;;5.28;4.00;;;;;;;28.01;31.07;97374.55;1780332;79;25708;-78
2021/06/08 11:23:45;;;;;;;;;;;;;;;27.79;32.07;97361.61;1753920;79;26512;-79
2021/06/08 11:26:17;;;;;;;3.62;3.33;;;;;;;27.84;32.99;97369.78;1766677;80;25730;-79
2021/06/08 11:28:52;;;;;;;4.58;3.67;;;;;;;28.02;33.04;97376.16;1782006;79;27439;-78
2021/06/08 11:31:27;;;;;;;3.75;3.37;;;;;;;28.04;32.08;97365.56;1766574;80;25746;-79
2021/06/08 11:34:05;;;;;;;5.70;3.85;;;;;;;27.98;31.93;97364.09;1765146;80;25683;-79
2021/06/08 11:36:36;;;;;;;4.78;3.40;;;;;;;28.20;31.81;97362.59;1792579;78;25742;-79
2021/06/08 11:39:20;;;;;;;4.55;3.47;;;;;;;28.35;31.54;97364.63;1715418;82;25790;-79
2021/06/08 11:42:01;;;;;;;3.67;3.37;;;;;;;28.25;31.80;97358.84;1699009;81;28282;-80
2021/06/08 11:44:28;;;;;;;6.22;3.77;;;;;;;28.33;32.65;97358.02;1719537;81;25727;-79
2021/06/08 11:47:01;;;;;;;4.45;4.05;;;;;;;28.41;32.69;97356.36;1740615;81;25797;-79
2021/06/08 11:49:31;;;;;;;7.83;3.65;;;;;;;28.27;32.44;97358.73;1740669;81;26486;-78
2021/06/08 11:52:13;;;;;;;4.62;3.60;;;;;;;28.11;32.79;97358.97;1740274;81;25737;-78